Time,TemperatureF,DewpointF,PressureIn,WindDirection,WindDirectionDegrees,WindSpeedMPH,WindSpeedGustMPH,Humidity,HourlyPrecipIn,Conditions,Clouds,dailyrainin,SoftwareType,DateUTC
2013-01-24 00:07:00,50.6,48.9,30.28,South,185,0.0,0.0,94,0.00,,,0.00,Wunderground v.1.15,2013-01-24 06:07:00,
2013-01-24 00:12:00,50.4,48.7,30.27,South,185,0.0,0.0,94,0.00,,,0.00,Wunderground v.1.15,2013-01-24 06:12:00,
2013-01-24 00:17:00,50.3,48.6,30.28,South,185,0.0,0.0,94,0.00,,,0.00,Wunderground v.1.15,2013-01-24 06:17:00,
2013-01-24 00:27:00,50.1,48.7,30.28,South,185,0.0,0.0,95,0.00,,,0.00,Wunderground v.1.15,2013-01-24 06:27:00,
2013-01-24 00:32:00,50.0,48.6,30.28,South,185,0.0,0.0,95,0.00,,,0.00,Wunderground v.1.15,2013-01-24 06:32:00,
2013-01-24 00:37:00,50.0,48.6,30.28,South,185,0.0,0.0,95,0.00,,,0.00,Wunderground v.1.15,2013-01-24 06:37:00,
2013-01-24 00:42:00,50.1,48.7,30.28,South,185,0.0,0.0,95,0.00,,,0.00,Wunderground v.1.15,2013-01-24 06:42:00,
2013-01-24 00:47:00,50.1,48.7,30.27,South,185,0.0,0.0,95,0.00,,,0.00,Wunderground v.1.15,2013-01-24 06:47:00,
2013-01-24 00:57:00,50.1,48.7,30.27,South,185,0.0,0.0,95,0.00,,,0.00,Wunderground v.1.15,2013-01-24 06:57:00,
2013-01-24 01:07:00,50.1,48.7,30.27,South,185,0.0,0.0,95,0.00,,,0.00,Wunderground v.1.15,2013-01-24 07:07:00,
2013-01-24 01:12:00,50.1,48.7,30.27,South,185,0.0,0.0,95,0.00,,,0.00,Wunderground v.1.15,2013-01-24 07:12:00,
2013-01-24 01:17:00,50.1,48.7,30.27,South,185,0.0,0.0,95,0.00,,,0.00,Wunderground v.1.15,2013-01-24 07:17:00,
2013-01-24 01:22:00,50.1,48.7,30.27,South,185,0.0,0.0,95,0.00,,,0.00,Wunderground v.1.15,2013-01-24 07:22:00,
2013-01-24 01:27:00,50.0,48.6,30.27,South,185,0.0,0.0,95,0.00,,,0.00,Wunderground v.1.15,2013-01-24 07:27:00,
2013-01-24 01:32:00,50.0,48.6,30.27,South,185,0.0,0.0,95,0.00,,,0.00,Wunderground v.1.15,2013-01-24 07:32:00,
2013-01-24 01:42:00,50.0,48.9,30.27,South,185,0.0,0.0,96,0.00,,,0.00,Wunderground v.1.15,2013-01-24 07:42:00,
2013-01-24 01:47:00,50.0,48.9,30.27,South,185,0.0,0.0,96,0.00,,,0.00,Wunderground v.1.15,2013-01-24 07:47:00,
2013-01-24 01:52:00,49.9,48.8,30.26,South,185,0.0,0.0,96,0.00,,,0.00,Wunderground v.1.15,2013-01-24 07:52:00,
2013-01-24 01:57:00,49.9,48.8,30.26,South,185,0.0,0.0,96,0.00,,,0.00,Wunderground v.1.15,2013-01-24 07:57:00,
2013-01-24 02:07:00,50.0,48.9,30.26,South,185,0.0,0.0,96,0.00,,,0.00,Wunderground v.1.15,2013-01-24 08:07:00,
2013-01-24 02:12:00,50.1,49.0,30.26,South,185,0.0,0.0,96,0.00,,,0.00,Wunderground v.1.15,2013-01-24 08:12:00,
2013-01-24 02:17:00,50.2,49.1,30.26,South,185,0.0,0.0,96,0.00,,,0.00,Wunderground v.1.15,2013-01-24 08:17:00,
2013-01-24 02:27:00,50.3,49.2,30.26,South,185,0.0,0.0,96,0.00,,,0.00,Wunderground v.1.15,2013-01-24 08:27:00,
2013-01-24 02:32:00,50.3,49.2,30.26,South,185,0.0,0.0,96,0.00,,,0.00,Wunderground v.1.15,2013-01-24 08:32:00,
2013-01-24 02:37:00,50.3,49.2,30.26,South,185,0.0,0.0,96,0.00,,,0.00,Wunderground v.1.15,2013-01-24 08:37:00,
2013-01-24 02:42:00,50.2,49.1,30.26,South,185,0.0,0.0,96,0.00,,,0.00,Wunderground v.1.15,2013-01-24 08:42:00,
2013-01-24 02:52:00,50.4,49.3,30.26,South,185,0.0,0.0,96,0.00,,,0.00,Wunderground v.1.15,2013-01-24 08:52:00,
2013-01-24 02:57:00,50.5,49.4,30.26,South,185,0.0,0.0,96,0.00,,,0.00,Wunderground v.1.15,2013-01-24 08:57:00,
2013-01-24 03:07:00,50.8,50.0,30.26,South,185,0.0,0.0,97,0.00,,,0.00,Wunderground v.1.15,2013-01-24 09:07:00,
2013-01-24 03:12:00,51.4,50.6,30.25,South,183,0.0,0.0,97,0.00,,,0.00,Wunderground v.1.15,2013-01-24 09:12:00,
2013-01-24 03:17:00,51.5,50.7,30.26,South,183,0.0,0.0,97,0.00,,,0.00,Wunderground v.1.15,2013-01-24 09:17:00,
2013-01-24 03:22:00,51.7,50.9,30.26,South,183,0.0,0.0,97,0.00,,,0.00,Wunderground v.1.15,2013-01-24 09:22:00,
2013-01-24 03:27:00,51.8,51.0,30.26,South,183,0.0,0.0,97,0.00,,,0.00,Wunderground v.1.15,2013-01-24 09:27:00,
2013-01-24 03:32:00,51.8,51.0,30.26,South,183,0.0,0.0,97,0.00,,,0.00,Wunderground v.1.15,2013-01-24 09:32:00,
2013-01-24 03:37:00,51.9,51.1,30.26,South,183,0.0,0.0,97,0.00,,,0.00,Wunderground v.1.15,2013-01-24 09:37:00,
2013-01-24 03:42:00,51.8,51.0,30.26,South,183,0.0,0.0,97,0.00,,,0.00,Wunderground v.1.15,2013-01-24 09:42:00,
2013-01-24 03:47:00,51.8,50.7,30.26,South,183,0.0,0.0,96,0.00,,,0.00,Wunderground v.1.15,2013-01-24 09:47:00,
2013-01-24 03:52:00,51.7,50.6,30.26,South,183,0.0,0.0,96,0.00,,,0.00,Wunderground v.1.15,2013-01-24 09:52:00,
2013-01-24 03:57:00,51.7,50.6,30.26,South,183,0.0,0.0,96,0.00,,,0.00,Wunderground v.1.15,2013-01-24 09:57:00,
2013-01-24 04:07:00,51.5,50.4,30.27,South,183,0.0,0.0,96,0.00,,,0.00,Wunderground v.1.15,2013-01-24 10:07:00,
2013-01-24 04:17:00,51.2,50.1,30.27,South,183,0.0,0.0,96,0.00,,,0.00,Wunderground v.1.15,2013-01-24 10:17:00,
2013-01-24 04:22:00,51.1,50.0,30.26,South,183,0.0,0.0,96,0.00,,,0.00,Wunderground v.1.15,2013-01-24 10:22:00,
2013-01-24 04:27:00,51.0,49.9,30.26,South,183,0.0,0.0,96,0.00,,,0.00,Wunderground v.1.15,2013-01-24 10:27:00,
2013-01-24 04:32:00,50.8,49.7,30.26,South,183,0.0,0.0,96,0.00,,,0.00,Wunderground v.1.15,2013-01-24 10:32:00,
2013-01-24 04:37:00,50.6,49.5,30.27,South,183,0.0,0.0,96,0.00,,,0.00,Wunderground v.1.15,2013-01-24 10:37:00,
2013-01-24 04:42:00,50.5,49.4,30.27,South,183,0.0,0.0,96,0.00,,,0.00,Wunderground v.1.15,2013-01-24 10:42:00,
2013-01-24 04:47:00,50.4,49.3,30.27,South,183,0.0,0.0,96,0.00,,,0.00,Wunderground v.1.15,2013-01-24 10:47:00,
2013-01-24 04:52:00,50.3,49.2,30.27,South,183,0.0,0.0,96,0.00,,,0.00,Wunderground v.1.15,2013-01-24 10:52:00,
2013-01-24 04:57:00,50.2,49.1,30.27,South,183,0.0,0.0,96,0.00,,,0.00,Wunderground v.1.15,2013-01-24 10:57:00,
2013-01-24 05:07:00,50.0,48.9,30.27,South,183,0.0,0.0,96,0.00,,,0.00,Wunderground v.1.15,2013-01-24 11:07:00,
2013-01-24 05:12:00,49.8,48.7,30.27,South,183,0.0,0.0,96,0.00,,,0.00,Wunderground v.1.15,2013-01-24 11:12:00,
2013-01-24 05:22:00,49.5,48.4,30.27,South,183,0.0,0.0,96,0.00,,,0.00,Wunderground v.1.15,2013-01-24 11:22:00,
2013-01-24 05:27:00,49.4,48.3,30.27,South,183,0.0,0.0,96,0.00,,,0.00,Wunderground v.1.15,2013-01-24 11:27:00,
2013-01-24 05:32:00,49.2,48.1,30.27,South,183,0.0,0.0,96,0.00,,,0.00,Wunderground v.1.15,2013-01-24 11:32:00,
2013-01-24 05:37:00,49.1,48.0,30.28,South,183,0.0,0.0,96,0.00,,,0.00,Wunderground v.1.15,2013-01-24 11:37:00,
2013-01-24 05:42:00,49.1,48.0,30.28,South,183,0.0,0.0,96,0.00,,,0.00,Wunderground v.1.15,2013-01-24 11:42:00,
2013-01-24 05:47:00,49.1,48.0,30.28,South,183,0.0,0.0,96,0.00,,,0.00,Wunderground v.1.15,2013-01-24 11:47:00,
2013-01-24 05:52:00,49.0,47.9,30.28,South,183,0.0,0.0,96,0.00,,,0.00,Wunderground v.1.15,2013-01-24 11:52:00,
2013-01-24 05:57:00,49.0,47.9,30.29,South,183,0.0,0.0,96,0.00,,,0.00,Wunderground v.1.15,2013-01-24 11:57:00,
2013-01-24 06:07:00,48.8,47.7,30.29,South,183,0.0,0.0,96,0.00,,,0.00,Wunderground v.1.15,2013-01-24 12:07:00,
2013-01-24 06:12:00,48.6,47.5,30.28,South,183,0.0,0.0,96,0.00,,,0.00,Wunderground v.1.15,2013-01-24 12:12:00,
2013-01-24 06:17:00,48.5,47.4,30.28,South,183,0.0,0.0,96,0.00,,,0.00,Wunderground v.1.15,2013-01-24 12:17:00,
2013-01-24 06:22:00,48.3,47.2,30.28,South,183,0.0,0.0,96,0.00,,,0.00,Wunderground v.1.15,2013-01-24 12:22:00,
2013-01-24 06:27:00,48.2,47.1,30.28,South,183,0.0,0.0,96,0.00,,,0.00,Wunderground v.1.15,2013-01-24 12:27:00,
2013-01-24 06:32:00,48.0,46.9,30.28,South,183,0.0,0.0,96,0.00,,,0.00,Wunderground v.1.15,2013-01-24 12:32:00,
2013-01-24 06:37:00,47.9,46.8,30.29,South,183,0.0,0.0,96,0.00,,,0.00,Wunderground v.1.15,2013-01-24 12:37:00,
2013-01-24 06:42:00,47.8,46.7,30.29,South,183,0.0,0.0,96,0.00,,,0.00,Wunderground v.1.15,2013-01-24 12:42:00,
2013-01-24 06:47:00,47.9,46.8,30.29,South,183,0.0,0.0,96,0.00,,,0.00,Wunderground v.1.15,2013-01-24 12:47:00,
2013-01-24 06:52:00,48.0,46.9,30.29,South,183,0.0,0.0,96,0.00,,,0.00,Wunderground v.1.15,2013-01-24 12:52:00,
2013-01-24 06:57:00,48.1,47.0,30.29,South,183,0.0,0.0,96,0.00,,,0.00,Wunderground v.1.15,2013-01-24 12:57:00,
2013-01-24 07:07:00,48.2,47.1,30.29,South,183,0.0,0.0,96,0.00,,,0.00,Wunderground v.1.15,2013-01-24 13:07:00,
2013-01-24 07:12:00,48.2,47.1,30.29,South,183,0.0,0.0,96,0.00,,,0.00,Wunderground v.1.15,2013-01-24 13:12:00,
2013-01-24 07:17:00,48.3,47.5,30.29,South,183,0.0,0.0,97,0.00,,,0.00,Wunderground v.1.15,2013-01-24 13:17:00,
2013-01-24 07:22:00,48.3,47.5,30.29,South,183,0.0,0.0,97,0.00,,,0.00,Wunderground v.1.15,2013-01-24 13:22:00,
2013-01-24 07:27:00,48.3,47.5,30.29,South,183,0.0,0.0,97,0.00,,,0.00,Wunderground v.1.15,2013-01-24 13:27:00,
2013-01-24 07:32:00,48.4,47.6,30.30,South,183,0.0,0.0,97,0.00,,,0.00,Wunderground v.1.15,2013-01-24 13:32:00,
2013-01-24 07:37:00,48.6,47.8,30.29,South,183,0.0,0.0,97,0.00,,,0.00,Wunderground v.1.15,2013-01-24 13:37:00,
2013-01-24 07:42:00,48.8,48.0,30.29,South,183,0.0,0.0,97,0.00,,,0.00,Wunderground v.1.15,2013-01-24 13:42:00,
2013-01-24 07:47:00,48.9,48.1,30.30,South,183,0.0,0.0,97,0.00,,,0.00,Wunderground v.1.15,2013-01-24 13:47:00,
2013-01-24 07:52:00,49.2,48.4,30.30,South,183,0.0,0.0,97,0.00,,,0.00,Wunderground v.1.15,2013-01-24 13:52:00,
2013-01-24 08:07:00,49.9,49.1,30.30,South,183,0.0,0.0,97,0.00,,,0.00,Wunderground v.1.15,2013-01-24 14:07:00,
2013-01-24 08:17:00,50.5,49.7,30.30,South,183,0.0,0.0,97,0.00,,,0.00,Wunderground v.1.15,2013-01-24 14:17:00,
2013-01-24 08:22:00,50.8,50.0,30.30,South,183,0.0,0.0,97,0.00,,,0.00,Wunderground v.1.15,2013-01-24 14:22:00,
2013-01-24 08:27:00,51.3,50.8,30.30,South,183,0.0,0.0,98,0.00,,,0.00,Wunderground v.1.15,2013-01-24 14:27:00,
2013-01-24 08:32:00,51.9,51.4,30.30,South,183,0.0,0.0,98,0.00,,,0.00,Wunderground v.1.15,2013-01-24 14:32:00,
2013-01-24 08:37:00,52.7,52.2,30.30,South,183,0.0,0.0,98,0.00,,,0.00,Wunderground v.1.15,2013-01-24 14:37:00,
2013-01-24 08:47:00,53.8,53.2,30.31,South,183,0.0,0.0,98,0.00,,,0.00,Wunderground v.1.15,2013-01-24 14:47:00,
2013-01-24 08:52:00,54.2,53.6,30.31,South,183,0.0,0.0,98,0.00,,,0.00,Wunderground v.1.15,2013-01-24 14:52:00,
2013-01-24 08:57:00,54.8,54.2,30.31,South,183,0.0,0.0,98,0.00,,,0.00,Wunderground v.1.15,2013-01-24 14:57:00,
2013-01-24 09:07:00,55.2,54.6,30.31,South,183,0.0,0.0,98,0.00,,,0.00,Wunderground v.1.15,2013-01-24 15:07:00,
2013-01-24 09:12:00,56.2,55.6,30.31,South,183,0.0,0.0,98,0.00,,,0.00,Wunderground v.1.15,2013-01-24 15:12:00,
2013-01-24 09:17:00,56.3,55.5,30.31,South,183,0.0,0.0,97,0.00,,,0.00,Wunderground v.1.15,2013-01-24 15:17:00,
2013-01-24 09:22:00,56.2,54.8,30.32,South,175,0.0,1.0,95,0.00,,,0.00,Wunderground v.1.15,2013-01-24 15:22:00,
2013-01-24 09:27:00,56.3,54.6,30.32,South,175,0.0,0.0,94,0.00,,,0.00,Wunderground v.1.15,2013-01-24 15:27:00,
2013-01-24 09:32:00,56.5,54.8,30.32,South,175,0.0,0.0,94,0.00,,,0.00,Wunderground v.1.15,2013-01-24 15:32:00,
2013-01-24 09:37:00,56.8,54.8,30.32,South,175,0.0,0.0,93,0.00,,,0.00,Wunderground v.1.15,2013-01-24 15:37:00,
2013-01-24 09:42:00,57.1,54.8,30.32,South,175,0.0,0.0,92,0.00,,,0.00,Wunderground v.1.15,2013-01-24 15:42:00,
2013-01-24 09:47:00,57.4,55.1,30.32,South,175,0.0,0.0,92,0.00,,,0.00,Wunderground v.1.15,2013-01-24 15:47:00,
2013-01-24 09:52:00,57.7,55.1,30.32,South,176,0.0,0.0,91,0.00,,,0.00,Wunderground v.1.15,2013-01-24 15:52:00,
2013-01-24 09:57:00,58.0,55.1,30.32,South,176,0.0,0.0,90,0.00,,,0.00,Wunderground v.1.15,2013-01-24 15:57:00,
2013-01-24 10:07:00,58.7,55.5,30.32,South,177,0.0,0.0,89,0.00,,,0.00,Wunderground v.1.15,2013-01-24 16:07:00,
2013-01-24 10:12:00,59.0,55.8,30.32,South,177,0.0,0.0,89,0.00,,,0.00,Wunderground v.1.15,2013-01-24 16:12:00,
2013-01-24 10:17:00,59.5,56.3,30.32,South,177,0.0,0.0,89,0.00,,,0.00,Wunderground v.1.15,2013-01-24 16:17:00,
2013-01-24 10:27:00,60.5,56.6,30.32,South,177,0.0,0.0,87,0.00,,,0.00,Wunderground v.1.15,2013-01-24 16:27:00,
2013-01-24 10:32:00,60.9,56.7,30.32,South,177,0.0,0.0,86,0.00,,,0.00,Wunderground v.1.15,2013-01-24 16:32:00,
2013-01-24 10:37:00,61.3,57.1,30.32,South,177,0.0,0.0,86,0.00,,,0.00,Wunderground v.1.15,2013-01-24 16:37:00,
2013-01-24 10:42:00,61.5,56.9,30.31,South,177,0.0,0.0,85,0.00,,,0.00,Wunderground v.1.15,2013-01-24 16:42:00,
2013-01-24 10:52:00,62.1,57.9,30.31,South,175,0.0,0.0,86,0.00,,,0.00,Wunderground v.1.15,2013-01-24 16:52:00,
2013-01-24 10:57:00,62.7,57.5,30.30,South,190,0.0,0.0,83,0.00,,,0.00,Wunderground v.1.15,2013-01-24 16:57:00,
2013-01-24 11:07:00,64.1,58.1,30.30,South,190,0.0,0.0,81,0.00,,,0.00,Wunderground v.1.15,2013-01-24 17:07:00,
2013-01-24 11:12:00,64.6,58.6,30.30,South,190,0.0,0.0,81,0.00,,,0.00,Wunderground v.1.15,2013-01-24 17:12:00,
2013-01-24 11:17:00,65.1,59.1,30.29,South,190,0.0,0.0,81,0.00,,,0.00,Wunderground v.1.15,2013-01-24 17:17:00,
2013-01-24 11:22:00,65.5,58.8,30.29,South,188,0.0,0.0,79,0.00,,,0.00,Wunderground v.1.15,2013-01-24 17:22:00,
2013-01-24 11:27:00,65.9,58.5,30.29,South,189,0.0,0.0,77,0.00,,,0.00,Wunderground v.1.15,2013-01-24 17:27:00,
2013-01-24 11:32:00,66.3,58.9,30.29,South,189,0.0,0.0,77,0.00,,,0.00,Wunderground v.1.15,2013-01-24 17:32:00,
2013-01-24 11:42:00,66.8,58.2,30.28,SSE,166,0.0,0.0,74,0.00,,,0.00,Wunderground v.1.15,2013-01-24 17:42:00,
2013-01-24 11:47:00,66.8,58.2,30.28,SSE,167,0.0,1.0,74,0.00,,,0.00,Wunderground v.1.15,2013-01-24 17:47:00,
2013-01-24 11:52:00,66.6,58.4,30.28,SSE,168,1.0,1.0,75,0.00,,,0.00,Wunderground v.1.15,2013-01-24 17:52:00,
2013-01-24 11:57:00,66.3,58.1,30.27,South,180,1.0,1.0,75,0.00,,,0.00,Wunderground v.1.15,2013-01-24 17:57:00,
2013-01-24 12:07:00,66.2,58.0,30.27,South,182,0.0,0.0,75,0.00,,,0.00,Wunderground v.1.15,2013-01-24 18:07:00,
2013-01-24 12:12:00,66.2,58.0,30.26,South,180,1.0,1.0,75,0.00,,,0.00,Wunderground v.1.15,2013-01-24 18:12:00,
2013-01-24 12:17:00,66.2,57.7,30.26,South,179,1.0,2.0,74,0.00,,,0.00,Wunderground v.1.15,2013-01-24 18:17:00,
2013-01-24 12:27:00,66.4,58.2,30.26,South,184,0.0,1.0,75,0.00,,,0.00,Wunderground v.1.15,2013-01-24 18:27:00,
2013-01-24 12:32:00,66.6,57.7,30.25,South,178,0.0,1.0,73,0.00,,,0.00,Wunderground v.1.15,2013-01-24 18:32:00,
2013-01-24 12:37:00,66.7,57.8,30.25,South,174,1.0,1.0,73,0.00,,,0.00,Wunderground v.1.15,2013-01-24 18:37:00,
2013-01-24 12:42:00,66.7,57.8,30.25,South,188,0.0,3.0,73,0.00,,,0.00,Wunderground v.1.15,2013-01-24 18:42:00,
2013-01-24 12:47:00,66.6,57.3,30.25,SSE,167,1.0,1.0,72,0.00,,,0.00,Wunderground v.1.15,2013-01-24 18:47:00,
2013-01-24 12:57:00,66.5,57.6,30.25,SSE,161,0.0,0.0,73,0.00,,,0.00,Wunderground v.1.15,2013-01-24 18:57:00,
2013-01-24 13:07:00,66.6,57.7,30.24,South,179,0.0,0.0,73,0.00,,,0.00,Wunderground v.1.15,2013-01-24 19:07:00,
2013-01-24 13:12:00,66.6,57.3,30.24,South,169,1.0,1.0,72,0.00,,,0.00,Wunderground v.1.15,2013-01-24 19:12:00,
2013-01-24 13:17:00,66.5,58.0,30.24,South,174,1.0,1.0,74,0.00,,,0.00,Wunderground v.1.15,2013-01-24 19:17:00,
2013-01-24 13:22:00,66.3,57.4,30.23,South,176,1.0,1.0,73,0.00,,,0.00,Wunderground v.1.15,2013-01-24 19:22:00,
2013-01-24 13:27:00,66.2,57.7,30.23,South,175,0.0,0.0,74,0.00,,,0.00,Wunderground v.1.15,2013-01-24 19:27:00,
2013-01-24 13:32:00,66.1,57.6,30.23,South,180,1.0,1.0,74,0.00,,,0.00,Wunderground v.1.15,2013-01-24 19:32:00,
2013-01-24 13:37:00,66.1,57.6,30.23,SSW,194,1.0,1.0,74,0.00,,,0.00,Wunderground v.1.15,2013-01-24 19:37:00,
2013-01-24 13:47:00,66.1,57.6,30.23,SSE,164,1.0,4.0,74,0.00,,,0.00,Wunderground v.1.15,2013-01-24 19:47:00,
2013-01-24 13:52:00,65.7,57.6,30.22,South,181,1.0,4.0,75,0.00,,,0.00,Wunderground v.1.15,2013-01-24 19:52:00,
2013-01-24 13:57:00,65.4,57.3,30.22,South,182,2.0,2.0,75,0.00,,,0.00,Wunderground v.1.15,2013-01-24 19:57:00,
2013-01-24 14:07:00,65.4,57.6,30.22,South,178,1.0,1.0,76,0.00,,,0.00,Wunderground v.1.15,2013-01-24 20:07:00,
2013-01-24 14:12:00,65.4,57.6,30.22,South,182,1.0,1.0,76,0.00,,,0.00,Wunderground v.1.15,2013-01-24 20:12:00,
2013-01-24 14:17:00,65.2,57.4,30.22,South,191,1.0,1.0,76,0.00,,,0.00,Wunderground v.1.15,2013-01-24 20:17:00,
2013-01-24 14:22:00,65.1,57.3,30.22,South,190,1.0,7.0,76,0.00,,,0.00,Wunderground v.1.15,2013-01-24 20:22:00,
2013-01-24 14:27:00,64.8,57.1,30.21,SSW,196,1.0,1.0,76,0.00,,,0.00,Wunderground v.1.15,2013-01-24 20:27:00,
2013-01-24 14:32:00,64.6,56.9,30.21,SE,127,2.0,2.0,76,0.00,,,0.00,Wunderground v.1.15,2013-01-24 20:32:00,
2013-01-24 14:37:00,64.4,57.0,30.21,South,174,1.0,5.0,77,0.00,,,0.00,Wunderground v.1.15,2013-01-24 20:37:00,
2013-01-24 14:42:00,64.3,57.3,30.21,SSW,192,1.0,5.0,78,0.00,,,0.00,Wunderground v.1.15,2013-01-24 20:42:00,
2013-01-24 14:47:00,64.0,57.0,30.21,South,184,2.0,2.0,78,0.00,,,0.00,Wunderground v.1.15,2013-01-24 20:47:00,
2013-01-24 14:52:00,63.8,57.2,30.21,SSW,199,2.0,3.0,79,0.00,,,0.00,Wunderground v.1.15,2013-01-24 20:52:00,
2013-01-24 14:57:00,63.6,57.0,30.21,SSW,205,1.0,1.0,79,0.00,,,0.00,Wunderground v.1.15,2013-01-24 20:57:00,
2013-01-24 15:07:00,63.5,57.2,30.21,SSW,194,2.0,3.0,80,0.00,,,0.00,Wunderground v.1.15,2013-01-24 21:07:00,
2013-01-24 15:12:00,63.1,57.2,30.21,SSW,197,1.0,3.0,81,0.00,,,0.00,Wunderground v.1.15,2013-01-24 21:12:00,
2013-01-24 15:17:00,62.9,57.0,30.21,SSW,196,0.0,1.0,81,0.00,,,0.00,Wunderground v.1.15,2013-01-24 21:17:00,
2013-01-24 15:22:00,62.7,57.1,30.20,South,182,0.0,1.0,82,0.00,,,0.00,Wunderground v.1.15,2013-01-24 21:22:00,
2013-01-24 15:27:00,62.6,57.0,30.21,SSW,196,0.0,0.0,82,0.00,,,0.00,Wunderground v.1.15,2013-01-24 21:27:00,
2013-01-24 15:32:00,62.5,57.3,30.21,South,174,0.0,2.0,83,0.00,,,0.00,Wunderground v.1.15,2013-01-24 21:32:00,
2013-01-24 15:37:00,62.5,57.3,30.20,SSW,199,1.0,1.0,83,0.00,,,0.00,Wunderground v.1.15,2013-01-24 21:37:00,
2013-01-24 15:42:00,62.4,57.2,30.20,South,173,1.0,1.0,83,0.00,,,0.00,Wunderground v.1.15,2013-01-24 21:42:00,
2013-01-24 15:47:00,62.5,57.3,30.20,SSW,198,1.0,1.0,83,0.00,,,0.00,Wunderground v.1.15,2013-01-24 21:47:00,
2013-01-24 15:52:00,62.4,57.2,30.20,South,180,1.0,1.0,83,0.00,,,0.00,Wunderground v.1.15,2013-01-24 21:52:00,
2013-01-24 15:57:00,62.3,57.1,30.20,South,180,1.0,1.0,83,0.00,,,0.00,Wunderground v.1.15,2013-01-24 21:57:00,
2013-01-24 16:07:00,62.1,56.9,30.20,SSW,202,1.0,1.0,83,0.00,,,0.00,Wunderground v.1.15,2013-01-24 22:07:00,
2013-01-24 16:12:00,61.6,57.0,30.20,South,178,0.0,1.0,85,0.00,,,0.00,Wunderground v.1.15,2013-01-24 22:12:00,
2013-01-24 16:17:00,61.4,56.8,30.20,South,175,0.0,0.0,85,0.00,,,0.00,Wunderground v.1.15,2013-01-24 22:17:00,
2013-01-24 16:22:00,61.3,56.8,30.20,South,182,0.0,0.0,85,0.00,,,0.00,Wunderground v.1.15,2013-01-24 22:22:00,
2013-01-24 16:27:00,61.1,56.6,30.20,South,182,0.0,0.0,85,0.00,,,0.00,Wunderground v.1.15,2013-01-24 22:27:00,
2013-01-24 16:32:00,60.9,56.7,30.20,South,175,0.0,0.0,86,0.00,,,0.00,Wunderground v.1.15,2013-01-24 22:32:00,
2013-01-24 16:37:00,60.7,56.5,30.20,South,182,0.0,0.0,86,0.00,,,0.00,Wunderground v.1.15,2013-01-24 22:37:00,
2013-01-24 16:42:00,60.5,56.6,30.21,South,182,0.0,0.0,87,0.00,,,0.00,Wunderground v.1.15,2013-01-24 22:42:00,
2013-01-24 16:47:00,60.4,56.5,30.21,SSW,192,0.0,0.0,87,0.00,,,0.00,Wunderground v.1.15,2013-01-24 22:47:00,
2013-01-24 16:52:00,60.2,56.3,30.21,South,184,0.0,0.0,87,0.00,,,0.00,Wunderground v.1.15,2013-01-24 22:52:00,
2013-01-24 16:57:00,60.0,56.4,30.21,South,184,0.0,0.0,88,0.00,,,0.00,Wunderground v.1.15,2013-01-24 22:57:00,
2013-01-24 17:07:00,59.9,56.3,30.21,South,183,0.0,0.0,88,0.00,,,0.00,Wunderground v.1.15,2013-01-24 23:07:00,
2013-01-24 17:12:00,59.7,56.1,30.21,South,183,0.0,0.0,88,0.00,,,0.00,Wunderground v.1.15,2013-01-24 23:12:00,
2013-01-24 17:17:00,59.6,56.4,30.21,South,183,0.0,0.0,89,0.00,,,0.00,Wunderground v.1.15,2013-01-24 23:17:00,
2013-01-24 17:27:00,59.2,56.0,30.22,South,178,0.0,1.0,89,0.00,,,0.00,Wunderground v.1.15,2013-01-24 23:27:00,
2013-01-24 17:32:00,59.0,55.8,30.22,South,178,0.0,1.0,89,0.00,,,0.00,Wunderground v.1.15,2013-01-24 23:32:00,
2013-01-24 17:37:00,59.0,55.8,30.22,South,178,0.0,0.0,89,0.00,,,0.00,Wunderground v.1.15,2013-01-24 23:37:00,
2013-01-24 17:42:00,59.0,55.8,30.22,South,178,0.0,0.0,89,0.00,,,0.00,Wunderground v.1.15,2013-01-24 23:42:00,
2013-01-24 17:47:00,59.0,56.1,30.22,South,178,0.0,0.0,90,0.00,,,0.00,Wunderground v.1.15,2013-01-24 23:47:00,
2013-01-24 17:52:00,59.0,56.1,30.22,South,178,0.0,0.0,90,0.00,,,0.00,Wunderground v.1.15,2013-01-24 23:52:00,
2013-01-24 17:57:00,58.9,56.0,30.23,South,178,0.0,0.0,90,0.00,,,0.00,Wunderground v.1.15,2013-01-24 23:57:00,
2013-01-24 18:07:00,58.6,56.0,30.23,South,178,0.0,0.0,91,0.00,,,0.00,Wunderground v.1.15,2013-01-25 00:07:00,
2013-01-24 18:17:00,58.4,55.8,30.23,South,178,0.0,0.0,91,0.00,,,0.00,Wunderground v.1.15,2013-01-25 00:17:00,
2013-01-24 18:22:00,58.4,55.8,30.23,South,178,0.0,0.0,91,0.00,,,0.00,Wunderground v.1.15,2013-01-25 00:22:00,
2013-01-24 18:27:00,58.2,55.6,30.23,South,178,0.0,0.0,91,0.00,,,0.00,Wunderground v.1.15,2013-01-25 00:27:00,
2013-01-24 18:37:00,58.0,55.4,30.23,South,178,0.0,0.0,91,0.00,,,0.00,Wunderground v.1.15,2013-01-25 00:37:00,
2013-01-24 18:42:00,58.1,55.8,30.24,South,178,0.0,0.0,92,0.00,,,0.00,Wunderground v.1.15,2013-01-25 00:42:00,
2013-01-24 18:47:00,58.1,55.8,30.24,South,178,0.0,0.0,92,0.00,,,0.00,Wunderground v.1.15,2013-01-25 00:47:00,
2013-01-24 18:52:00,58.2,55.9,30.24,South,178,0.0,0.0,92,0.00,,,0.00,Wunderground v.1.15,2013-01-25 00:52:00,
2013-01-24 18:57:00,58.2,55.9,30.24,South,178,0.0,0.0,92,0.00,,,0.00,Wunderground v.1.15,2013-01-25 00:57:00,
2013-01-24 19:07:00,58.3,56.0,30.24,South,178,0.0,0.0,92,0.00,,,0.00,Wunderground v.1.15,2013-01-25 01:07:00,
2013-01-24 19:17:00,58.3,56.0,30.24,South,178,0.0,0.0,92,0.00,,,0.00,Wunderground v.1.15,2013-01-25 01:17:00,
2013-01-24 19:22:00,58.2,55.6,30.24,South,178,0.0,0.0,91,0.00,,,0.00,Wunderground v.1.15,2013-01-25 01:22:00,
2013-01-24 19:27:00,58.2,55.9,30.25,South,178,0.0,0.0,92,0.00,,,0.00,Wunderground v.1.15,2013-01-25 01:27:00,
2013-01-24 19:32:00,58.2,55.9,30.25,South,178,0.0,0.0,92,0.00,,,0.00,Wunderground v.1.15,2013-01-25 01:32:00,
2013-01-24 19:37:00,58.2,55.9,30.25,South,178,0.0,0.0,92,0.00,,,0.00,Wunderground v.1.15,2013-01-25 01:37:00,
2013-01-24 19:42:00,58.2,55.9,30.24,South,178,0.0,0.0,92,0.00,,,0.00,Wunderground v.1.15,2013-01-25 01:42:00,
2013-01-24 19:47:00,58.2,55.9,30.24,South,178,0.0,0.0,92,0.00,,,0.00,Wunderground v.1.15,2013-01-25 01:47:00,
2013-01-24 19:52:00,58.2,55.9,30.24,South,178,0.0,0.0,92,0.00,,,0.00,Wunderground v.1.15,2013-01-25 01:52:00,
2013-01-24 19:57:00,58.2,55.9,30.24,South,178,0.0,0.0,92,0.00,,,0.00,Wunderground v.1.15,2013-01-25 01:57:00,
2013-01-24 20:07:00,58.2,55.9,30.24,South,178,0.0,0.0,92,0.00,,,0.00,Wunderground v.1.15,2013-01-25 02:07:00,
2013-01-24 20:12:00,58.2,55.9,30.24,South,178,0.0,0.0,92,0.00,,,0.00,Wunderground v.1.15,2013-01-25 02:12:00,
2013-01-24 20:22:00,58.2,55.9,30.24,South,178,0.0,0.0,92,0.00,,,0.00,Wunderground v.1.15,2013-01-25 02:22:00,
2013-01-24 20:27:00,58.2,55.9,30.24,South,178,0.0,0.0,92,0.00,,,0.00,Wunderground v.1.15,2013-01-25 02:27:00,
2013-01-24 20:32:00,58.2,55.9,30.24,South,178,0.0,0.0,92,0.00,,,0.00,Wunderground v.1.15,2013-01-25 02:32:00,
2013-01-24 20:37:00,58.2,56.2,30.24,South,178,0.0,0.0,93,0.00,,,0.00,Wunderground v.1.15,2013-01-25 02:37:00,
2013-01-24 20:42:00,58.2,56.2,30.24,South,178,0.0,0.0,93,0.00,,,0.00,Wunderground v.1.15,2013-01-25 02:42:00,
2013-01-24 20:52:00,58.2,56.2,30.24,South,178,0.0,0.0,93,0.00,,,0.00,Wunderground v.1.15,2013-01-25 02:52:00,
2013-01-24 20:57:00,58.2,56.2,30.24,South,178,0.0,0.0,93,0.00,,,0.00,Wunderground v.1.15,2013-01-25 02:57:00,
2013-01-24 21:07:00,58.2,56.2,30.24,South,178,0.0,0.0,93,0.00,,,0.00,Wunderground v.1.15,2013-01-25 03:07:00,
2013-01-24 21:12:00,58.1,56.1,30.24,South,178,0.0,0.0,93,0.00,,,0.00,Wunderground v.1.15,2013-01-25 03:12:00,
2013-01-24 21:17:00,58.0,56.0,30.24,South,178,0.0,0.0,93,0.00,,,0.00,Wunderground v.1.15,2013-01-25 03:17:00,
2013-01-24 21:22:00,58.0,56.0,30.24,South,178,0.0,0.0,93,0.00,,,0.00,Wunderground v.1.15,2013-01-25 03:22:00,
2013-01-24 21:32:00,57.9,55.9,30.25,South,178,0.0,0.0,93,0.00,,,0.00,Wunderground v.1.15,2013-01-25 03:32:00,
2013-01-24 21:37:00,57.9,55.9,30.25,South,178,0.0,0.0,93,0.00,,,0.00,Wunderground v.1.15,2013-01-25 03:37:00,
2013-01-24 21:42:00,57.8,55.8,30.25,South,178,0.0,0.0,93,0.00,,,0.00,Wunderground v.1.15,2013-01-25 03:42:00,
2013-01-24 21:47:00,57.8,55.8,30.25,South,178,0.0,0.0,93,0.00,,,0.00,Wunderground v.1.15,2013-01-25 03:47:00,
2013-01-24 21:52:00,57.7,55.7,30.25,South,178,0.0,0.0,93,0.00,,,0.00,Wunderground v.1.15,2013-01-25 03:52:00,
2013-01-24 22:07:00,57.5,55.5,30.25,South,178,0.0,0.0,93,0.00,,,0.00,Wunderground v.1.15,2013-01-25 04:07:00,
2013-01-24 22:12:00,57.3,55.3,30.25,South,178,0.0,0.0,93,0.00,,,0.00,Wunderground v.1.15,2013-01-25 04:12:00,
2013-01-24 22:17:00,57.2,55.2,30.25,South,178,0.0,0.0,93,0.00,,,0.00,Wunderground v.1.15,2013-01-25 04:17:00,
2013-01-24 22:22:00,57.2,55.2,30.25,South,178,0.0,0.0,93,0.00,,,0.00,Wunderground v.1.15,2013-01-25 04:22:00,
2013-01-24 22:27:00,57.1,55.1,30.25,South,178,0.0,0.0,93,0.00,,,0.00,Wunderground v.1.15,2013-01-25 04:27:00,
2013-01-24 22:32:00,57.0,55.3,30.25,South,178,0.0,0.0,94,0.00,,,0.00,Wunderground v.1.15,2013-01-25 04:32:00,
2013-01-24 22:37:00,57.0,55.3,30.25,South,178,0.0,0.0,94,0.00,,,0.00,Wunderground v.1.15,2013-01-25 04:37:00,
2013-01-24 22:42:00,56.9,55.2,30.25,South,178,0.0,0.0,94,0.00,,,0.00,Wunderground v.1.15,2013-01-25 04:42:00,
2013-01-24 22:47:00,56.9,55.2,30.25,South,178,0.0,0.0,94,0.00,,,0.00,Wunderground v.1.15,2013-01-25 04:47:00,
2013-01-24 22:52:00,56.8,55.1,30.24,South,178,0.0,0.0,94,0.00,,,0.00,Wunderground v.1.15,2013-01-25 04:52:00,
2013-01-24 22:57:00,56.8,55.1,30.24,South,178,0.0,0.0,94,0.00,,,0.00,Wunderground v.1.15,2013-01-25 04:57:00,
2013-01-24 23:07:00,56.6,54.9,30.24,South,178,0.0,0.0,94,0.00,,,0.00,Wunderground v.1.15,2013-01-25 05:07:00,
2013-01-24 23:12:00,56.5,54.8,30.24,South,178,0.0,0.0,94,0.00,,,0.00,Wunderground v.1.15,2013-01-25 05:12:00,
2013-01-24 23:22:00,56.3,54.6,30.24,South,178,0.0,0.0,94,0.00,,,0.00,Wunderground v.1.15,2013-01-25 05:22:00,
2013-01-24 23:27:00,56.1,54.4,30.23,South,178,0.0,0.0,94,0.00,,,0.00,Wunderground v.1.15,2013-01-25 05:27:00,
2013-01-24 23:32:00,55.9,54.2,30.24,South,178,0.0,0.0,94,0.00,,,0.00,Wunderground v.1.15,2013-01-25 05:32:00,
2013-01-24 23:37:00,55.7,54.0,30.24,South,178,0.0,0.0,94,0.00,,,0.00,Wunderground v.1.15,2013-01-25 05:37:00,
2013-01-24 23:42:00,55.6,54.2,30.24,South,178,0.0,0.0,95,0.00,,,0.00,Wunderground v.1.15,2013-01-25 05:42:00,
2013-01-24 23:47:00,55.5,53.8,30.23,South,178,0.0,0.0,94,0.00,,,0.00,Wunderground v.1.15,2013-01-25 05:47:00,
2013-01-24 23:52:00,55.4,53.7,30.23,South,178,0.0,0.0,94,0.00,,,0.00,Wunderground v.1.15,2013-01-25 05:52:00,
2013-01-24 23:57:00,55.2,53.8,30.23,South,178,0.0,0.0,95,0.00,,,0.00,Wunderground v.1.15,2013-01-25 05:57:00,